EHEH

Eindhoven Airport

Airport
ICAO code
EHEH
IATA Code
EIN
Summary
ICAO Region
EUR
ICAO Territory
Location

Eindhoven, Noord-Brabant

Serving
Eindhoven
Elevation
74 ft
Coordinates
51° 27' 1" N , 5° 22' 28" E
KCC
Cfb
Metar
Observation
EHEH 082025Z AUTO 36007KT 330V040 9999 NCD 19/13 Q1026 BLU NOSIG
Station
Eindhoven
Date/Time
2022-08-08 20:25:00
Wind direction
360°
Wind speed
07 kts
Lowest cloud amount
no clouds detected
Temperature
19°C
Dew point
13°C
Humidity
68%
QNH
1026 hPa
Weather condition
n/a

International airport serving Eindhoven, The Netherlands.

Climatology

Temperate Marine climate/Oceanic climate (Köppen climate classification Cfb). Moderately cool summer and comparatively warm winter with a temperature range of only 14°C. Prevailing south-westerly winds from the Atlantic Ocean.

Runways

Designator Length Width Surface Rops
4/22 3000 45 ASP Yes/Yes

SKYbrary Partners:

Safety knowledge contributed by: